sensor_id;sensor_type;location;lat;lon;timestamp;P1;durP1;ratioP1;P2;durP2;ratioP2
14292;SDS011;62290;59.420;17.842;2023-01-28T00:01:47;0.95;;;0.60;;
14292;SDS011;62290;59.420;17.842;2023-01-28T00:04:15;1.25;;;0.70;;
14292;SDS011;62290;59.420;17.842;2023-01-28T00:06:43;2.58;;;1.10;;
14292;SDS011;62290;59.420;17.842;2023-01-28T00:09:11;1.30;;;0.73;;
14292;SDS011;62290;59.420;17.842;2023-01-28T00:11:39;4.10;;;0.73;;
14292;SDS011;62290;59.420;17.842;2023-01-28T00:14:10;1.30;;;0.73;;
14292;SDS011;62290;59.420;17.842;2023-01-28T00:16:38;4.22;;;1.02;;
14292;SDS011;62290;59.420;17.842;2023-01-28T00:19:07;0.45;;;0.45;;
14292;SDS011;62290;59.420;17.842;2023-01-28T00:21:35;0.55;;;0.50;;
14292;SDS011;62290;59.420;17.842;2023-01-28T00:24:03;0.95;;;0.60;;
14292;SDS011;62290;59.420;17.842;2023-01-28T00:26:32;1.75;;;0.63;;
14292;SDS011;62290;59.420;17.842;2023-01-28T00:29:00;3.00;;;0.60;;
14292;SDS011;62290;59.420;17.842;2023-01-28T00:31:30;2.53;;;0.85;;
14292;SDS011;62290;59.420;17.842;2023-01-28T00:33:59;1.10;;;0.50;;
14292;SDS011;62290;59.420;17.842;2023-01-28T00:36:27;1.65;;;0.80;;
14292;SDS011;62290;59.420;17.842;2023-01-28T00:38:56;1.45;;;0.63;;
14292;SDS011;62290;59.420;17.842;2023-01-28T00:41:27;1.83;;;0.73;;
14292;SDS011;62290;59.420;17.842;2023-01-28T00:43:57;0.90;;;0.65;;
14292;SDS011;62290;59.420;17.842;2023-01-28T00:46:25;1.10;;;0.60;;
14292;SDS011;62290;59.420;17.842;2023-01-28T00:48:55;1.17;;;0.60;;
14292;SDS011;62290;59.420;17.842;2023-01-28T00:51:23;0.60;;;0.47;;
14292;SDS011;62290;59.420;17.842;2023-01-28T00:53:51;1.50;;;0.60;;
14292;SDS011;62290;59.420;17.842;2023-01-28T00:56:19;0.82;;;0.77;;
14292;SDS011;62290;59.420;17.842;2023-01-28T00:58:47;1.17;;;0.60;;
14292;SDS011;62290;59.420;17.842;2023-01-28T01:01:16;1.75;;;0.57;;
14292;SDS011;62290;59.420;17.842;2023-01-28T01:03:46;2.67;;;0.60;;
14292;SDS011;62290;59.420;17.842;2023-01-28T01:06:22;0.70;;;0.50;;
14292;SDS011;62290;59.420;17.842;2023-01-28T01:08:51;0.95;;;0.60;;
14292;SDS011;62290;59.420;17.842;2023-01-28T01:11:19;1.05;;;0.70;;
14292;SDS011;62290;59.420;17.842;2023-01-28T01:13:51;1.50;;;0.77;;
14292;SDS011;62290;59.420;17.842;2023-01-28T01:16:20;1.58;;;0.90;;
14292;SDS011;62290;59.420;17.842;2023-01-28T01:18:50;0.60;;;0.60;;
14292;SDS011;62290;59.420;17.842;2023-01-28T01:21:19;1.17;;;0.50;;
14292;SDS011;62290;59.420;17.842;2023-01-28T01:23:51;0.80;;;0.40;;
14292;SDS011;62290;59.420;17.842;2023-01-28T01:26:20;0.65;;;0.52;;
14292;SDS011;62290;59.420;17.842;2023-01-28T01:28:49;1.80;;;0.40;;
14292;SDS011;62290;59.420;17.842;2023-01-28T01:31:18;0.50;;;0.40;;
14292;SDS011;62290;59.420;17.842;2023-01-28T01:33:47;0.57;;;0.40;;
14292;SDS011;62290;59.420;17.842;2023-01-28T01:36:17;1.40;;;0.55;;
14292;SDS011;62290;59.420;17.842;2023-01-28T01:38:51;0.57;;;0.45;;
14292;SDS011;62290;59.420;17.842;2023-01-28T01:41:22;0.55;;;0.47;;
14292;SDS011;62290;59.420;17.842;2023-01-28T01:43:53;0.80;;;0.50;;
14292;SDS011;62290;59.420;17.842;2023-01-28T01:46:23;1.02;;;0.57;;
14292;SDS011;62290;59.420;17.842;2023-01-28T01:48:57;0.30;;;0.30;;
14292;SDS011;62290;59.420;17.842;2023-01-28T01:51:33;1.10;;;0.40;;
14292;SDS011;62290;59.420;17.842;2023-01-28T01:54:04;1.30;;;0.60;;
14292;SDS011;62290;59.420;17.842;2023-01-28T01:56:34;0.40;;;0.40;;
14292;SDS011;62290;59.420;17.842;2023-01-28T01:59:07;0.60;;;0.40;;
14292;SDS011;62290;59.420;17.842;2023-01-28T02:01:39;0.50;;;0.38;;
14292;SDS011;62290;59.420;17.842;2023-01-28T02:04:09;0.50;;;0.40;;
14292;SDS011;62290;59.420;17.842;2023-01-28T02:06:44;1.15;;;0.40;;
14292;SDS011;62290;59.420;17.842;2023-01-28T02:09:23;0.57;;;0.40;;
14292;SDS011;62290;59.420;17.842;2023-01-28T02:11:52;0.73;;;0.35;;
14292;SDS011;62290;59.420;17.842;2023-01-28T02:14:23;0.95;;;0.47;;
14292;SDS011;62290;59.420;17.842;2023-01-28T02:16:57;0.40;;;0.40;;
14292;SDS011;62290;59.420;17.842;2023-01-28T02:19:29;0.82;;;0.43;;
14292;SDS011;62290;59.420;17.842;2023-01-28T02:22:04;0.30;;;0.30;;
14292;SDS011;62290;59.420;17.842;2023-01-28T02:28:03;0.30;;;0.30;;
14292;SDS011;62290;59.420;17.842;2023-01-28T02:30:42;0.60;;;0.57;;
14292;SDS011;62290;59.420;17.842;2023-01-28T02:33:20;0.57;;;0.20;;
14292;SDS011;62290;59.420;17.842;2023-01-28T02:35:56;0.47;;;0.30;;
14292;SDS011;62290;59.420;17.842;2023-01-28T02:38:30;0.28;;;0.28;;
14292;SDS011;62290;59.420;17.842;2023-01-28T02:41:04;0.30;;;0.30;;
14292;SDS011;62290;59.420;17.842;2023-01-28T02:43:39;0.50;;;0.50;;
14292;SDS011;62290;59.420;17.842;2023-01-28T02:46:14;1.85;;;0.40;;
14292;SDS011;62290;59.420;17.842;2023-01-28T02:49:06;0.85;;;0.40;;
14292;SDS011;62290;59.420;17.842;2023-01-28T02:51:42;0.63;;;0.35;;
14292;SDS011;62290;59.420;17.842;2023-01-28T02:54:23;0.85;;;0.40;;
14292;SDS011;62290;59.420;17.842;2023-01-28T02:57:01;0.38;;;0.30;;
14292;SDS011;62290;59.420;17.842;2023-01-28T02:59:39;0.55;;;0.30;;
14292;SDS011;62290;59.420;17.842;2023-01-28T03:02:17;0.47;;;0.30;;
14292;SDS011;62290;59.420;17.842;2023-01-28T03:04:51;0.30;;;0.30;;
14292;SDS011;62290;59.420;17.842;2023-01-28T03:07:26;0.75;;;0.40;;
14292;SDS011;62290;59.420;17.842;2023-01-28T03:09:57;0.30;;;0.30;;
14292;SDS011;62290;59.420;17.842;2023-01-28T03:12:30;0.70;;;0.38;;
14292;SDS011;62290;59.420;17.842;2023-01-28T03:15:18;0.30;;;0.30;;
14292;SDS011;62290;59.420;17.842;2023-01-28T03:18:08;0.30;;;0.30;;
14292;SDS011;62290;59.420;17.842;2023-01-28T03:20:59;0.38;;;0.30;;
14292;SDS011;62290;59.420;17.842;2023-01-28T03:23:51;0.60;;;0.30;;
14292;SDS011;62290;59.420;17.842;2023-01-28T03:26:42;0.30;;;0.30;;
14292;SDS011;62290;59.420;17.842;2023-01-28T03:29:32;0.47;;;0.30;;
14292;SDS011;62290;59.420;17.842;2023-01-28T03:32:21;0.30;;;0.30;;
14292;SDS011;62290;59.420;17.842;2023-01-28T03:35:07;0.20;;;0.20;;
14292;SDS011;62290;59.420;17.842;2023-01-28T03:37:56;0.30;;;0.30;;
14292;SDS011;62290;59.420;17.842;2023-01-28T03:40:26;0.30;;;0.30;;
14292;SDS011;62290;59.420;17.842;2023-01-28T03:42:55;1.55;;;0.30;;
14292;SDS011;62290;59.420;17.842;2023-01-28T03:45:32;0.30;;;0.30;;
14292;SDS011;62290;59.420;17.842;2023-01-28T03:48:04;0.98;;;0.40;;
14292;SDS011;62290;59.420;17.842;2023-01-28T03:50:33;0.47;;;0.35;;
14292;SDS011;62290;59.420;17.842;2023-01-28T03:53:01;0.28;;;0.20;;
14292;SDS011;62290;59.420;17.842;2023-01-28T03:55:51;0.45;;;0.40;;
14292;SDS011;62290;59.420;17.842;2023-01-28T03:58:22;0.32;;;0.30;;
14292;SDS011;62290;59.420;17.842;2023-01-28T04:00:52;0.55;;;0.40;;
14292;SDS011;62290;59.420;17.842;2023-01-28T04:03:22;0.45;;;0.30;;
14292;SDS011;62290;59.420;17.842;2023-01-28T04:05:57;0.32;;;0.30;;
14292;SDS011;62290;59.420;17.842;2023-01-28T04:08:42;2.38;;;0.47;;
14292;SDS011;62290;59.420;17.842;2023-01-28T04:11:26;0.38;;;0.30;;
14292;SDS011;62290;59.420;17.842;2023-01-28T04:13:56;1.48;;;0.40;;
14292;SDS011;62290;59.420;17.842;2023-01-28T04:16:26;0.30;;;0.30;;
14292;SDS011;62290;59.420;17.842;2023-01-28T04:18:56;2.15;;;0.40;;
14292;SDS011;62290;59.420;17.842;2023-01-28T04:21:25;4.70;;;0.50;;
14292;SDS011;62290;59.420;17.842;2023-01-28T04:23:53;0.25;;;0.25;;
14292;SDS011;62290;59.420;17.842;2023-01-28T04:26:21;0.40;;;0.30;;
14292;SDS011;62290;59.420;17.842;2023-01-28T04:28:49;0.35;;;0.35;;
14292;SDS011;62290;59.420;17.842;2023-01-28T04:31:17;0.22;;;0.22;;
14292;SDS011;62290;59.420;17.842;2023-01-28T04:34:15;0.20;;;0.20;;
14292;SDS011;62290;59.420;17.842;2023-01-28T04:37:12;0.68;;;0.40;;
14292;SDS011;62290;59.420;17.842;2023-01-28T04:39:44;0.75;;;0.20;;
14292;SDS011;62290;59.420;17.842;2023-01-28T04:42:18;0.20;;;0.20;;
14292;SDS011;62290;59.420;17.842;2023-01-28T04:45:03;0.22;;;0.22;;
14292;SDS011;62290;59.420;17.842;2023-01-28T04:47:44;0.40;;;0.20;;
14292;SDS011;62290;59.420;17.842;2023-01-28T04:50:33;0.75;;;0.40;;
14292;SDS011;62290;59.420;17.842;2023-01-28T04:53:12;0.30;;;0.30;;
14292;SDS011;62290;59.420;17.842;2023-01-28T04:55:52;0.68;;;0.30;;
14292;SDS011;62290;59.420;17.842;2023-01-28T04:58:20;0.63;;;0.30;;
14292;SDS011;62290;59.420;17.842;2023-01-28T05:00:53;0.70;;;0.40;;
14292;SDS011;62290;59.420;17.842;2023-01-28T05:03:23;1.05;;;0.50;;
14292;SDS011;62290;59.420;17.842;2023-01-28T05:05:52;1.58;;;0.40;;
14292;SDS011;62290;59.420;17.842;2023-01-28T05:08:31;0.95;;;0.40;;
14292;SDS011;62290;59.420;17.842;2023-01-28T05:11:00;0.25;;;0.25;;
14292;SDS011;62290;59.420;17.842;2023-01-28T05:13:28;0.73;;;0.47;;
14292;SDS011;62290;59.420;17.842;2023-01-28T05:15:56;0.30;;;0.25;;
14292;SDS011;62290;59.420;17.842;2023-01-28T05:18:24;0.77;;;0.30;;
14292;SDS011;62290;59.420;17.842;2023-01-28T05:21:07;0.50;;;0.30;;
14292;SDS011;62290;59.420;17.842;2023-01-28T05:23:37;0.73;;;0.30;;
14292;SDS011;62290;59.420;17.842;2023-01-28T05:26:06;0.30;;;0.30;;
14292;SDS011;62290;59.420;17.842;2023-01-28T05:28:34;0.70;;;0.40;;
14292;SDS011;62290;59.420;17.842;2023-01-28T05:31:02;0.30;;;0.20;;
14292;SDS011;62290;59.420;17.842;2023-01-28T05:33:32;1.27;;;0.40;;
14292;SDS011;62290;59.420;17.842;2023-01-28T05:36:02;0.30;;;0.30;;
14292;SDS011;62290;59.420;17.842;2023-01-28T05:38:32;0.30;;;0.30;;
14292;SDS011;62290;59.420;17.842;2023-01-28T05:41:01;1.13;;;0.55;;
14292;SDS011;62290;59.420;17.842;2023-01-28T05:43:30;0.50;;;0.30;;
14292;SDS011;62290;59.420;17.842;2023-01-28T05:46:12;0.47;;;0.30;;
14292;SDS011;62290;59.420;17.842;2023-01-28T05:49:03;0.50;;;0.40;;
14292;SDS011;62290;59.420;17.842;2023-01-28T05:51:52;0.70;;;0.25;;
14292;SDS011;62290;59.420;17.842;2023-01-28T05:54:22;0.75;;;0.35;;
14292;SDS011;62290;59.420;17.842;2023-01-28T05:56:52;0.95;;;0.50;;
14292;SDS011;62290;59.420;17.842;2023-01-28T05:59:20;0.65;;;0.40;;
14292;SDS011;62290;59.420;17.842;2023-01-28T06:01:51;0.50;;;0.40;;
14292;SDS011;62290;59.420;17.842;2023-01-28T06:04:19;0.20;;;0.20;;
14292;SDS011;62290;59.420;17.842;2023-01-28T06:06:48;0.20;;;0.20;;
14292;SDS011;62290;59.420;17.842;2023-01-28T06:09:16;0.98;;;0.30;;
14292;SDS011;62290;59.420;17.842;2023-01-28T06:11:45;0.65;;;0.40;;
14292;SDS011;62290;59.420;17.842;2023-01-28T06:14:16;0.28;;;0.25;;
14292;SDS011;62290;59.420;17.842;2023-01-28T06:16:53;1.02;;;0.45;;
14292;SDS011;62290;59.420;17.842;2023-01-28T06:19:41;0.28;;;0.28;;
14292;SDS011;62290;59.420;17.842;2023-01-28T06:22:09;0.17;;;0.15;;
14292;SDS011;62290;59.420;17.842;2023-01-28T06:24:37;1.75;;;0.40;;
14292;SDS011;62290;59.420;17.842;2023-01-28T06:27:08;0.75;;;0.30;;
14292;SDS011;62290;59.420;17.842;2023-01-28T06:29:36;0.40;;;0.20;;
14292;SDS011;62290;59.420;17.842;2023-01-28T06:32:04;0.30;;;0.30;;
14292;SDS011;62290;59.420;17.842;2023-01-28T06:34:32;0.30;;;0.30;;
14292;SDS011;62290;59.420;17.842;2023-01-28T06:37:00;0.40;;;0.28;;
14292;SDS011;62290;59.420;17.842;2023-01-28T06:39:29;0.55;;;0.28;;
14292;SDS011;62290;59.420;17.842;2023-01-28T06:41:58;0.30;;;0.30;;
14292;SDS011;62290;59.420;17.842;2023-01-28T06:44:28;0.32;;;0.30;;
14292;SDS011;62290;59.420;17.842;2023-01-28T06:46:56;0.50;;;0.50;;
14292;SDS011;62290;59.420;17.842;2023-01-28T06:49:24;0.30;;;0.30;;
14292;SDS011;62290;59.420;17.842;2023-01-28T06:51:52;1.42;;;0.20;;
14292;SDS011;62290;59.420;17.842;2023-01-28T06:54:20;0.30;;;0.20;;
14292;SDS011;62290;59.420;17.842;2023-01-28T06:56:48;0.98;;;0.47;;
14292;SDS011;62290;59.420;17.842;2023-01-28T06:59:16;0.70;;;0.40;;
14292;SDS011;62290;59.420;17.842;2023-01-28T07:01:45;0.20;;;0.20;;
14292;SDS011;62290;59.420;17.842;2023-01-28T07:04:13;0.75;;;0.40;;
14292;SDS011;62290;59.420;17.842;2023-01-28T07:06:42;0.20;;;0.20;;
14292;SDS011;62290;59.420;17.842;2023-01-28T07:09:10;0.32;;;0.30;;
14292;SDS011;62290;59.420;17.842;2023-01-28T07:11:38;0.85;;;0.28;;
14292;SDS011;62290;59.420;17.842;2023-01-28T07:14:06;1.02;;;0.40;;
14292;SDS011;62290;59.420;17.842;2023-01-28T07:16:34;0.28;;;0.28;;
14292;SDS011;62290;59.420;17.842;2023-01-28T07:19:03;0.30;;;0.30;;
14292;SDS011;62290;59.420;17.842;2023-01-28T07:21:31;0.75;;;0.38;;
14292;SDS011;62290;59.420;17.842;2023-01-28T07:23:59;0.43;;;0.20;;
14292;SDS011;62290;59.420;17.842;2023-01-28T07:26:27;1.38;;;0.35;;
14292;SDS011;62290;59.420;17.842;2023-01-28T07:28:55;0.30;;;0.30;;
14292;SDS011;62290;59.420;17.842;2023-01-28T07:31:23;0.98;;;0.40;;
14292;SDS011;62290;59.420;17.842;2023-01-28T07:33:51;0.25;;;0.25;;
14292;SDS011;62290;59.420;17.842;2023-01-28T07:36:20;0.70;;;0.50;;
14292;SDS011;62290;59.420;17.842;2023-01-28T07:38:48;0.40;;;0.25;;
14292;SDS011;62290;59.420;17.842;2023-01-28T07:41:16;0.55;;;0.40;;
14292;SDS011;62290;59.420;17.842;2023-01-28T07:43:44;0.88;;;0.30;;
14292;SDS011;62290;59.420;17.842;2023-01-28T07:46:12;0.30;;;0.30;;
14292;SDS011;62290;59.420;17.842;2023-01-28T07:48:40;0.45;;;0.30;;
14292;SDS011;62290;59.420;17.842;2023-01-28T07:51:08;0.75;;;0.40;;
14292;SDS011;62290;59.420;17.842;2023-01-28T07:53:38;0.70;;;0.25;;
14292;SDS011;62290;59.420;17.842;2023-01-28T07:56:06;0.60;;;0.32;;
14292;SDS011;62290;59.420;17.842;2023-01-28T07:58:34;0.60;;;0.40;;
14292;SDS011;62290;59.420;17.842;2023-01-28T08:01:02;0.70;;;0.40;;
14292;SDS011;62290;59.420;17.842;2023-01-28T08:03:30;0.75;;;0.50;;
14292;SDS011;62290;59.420;17.842;2023-01-28T08:05:58;1.33;;;0.30;;
14292;SDS011;62290;59.420;17.842;2023-01-28T08:08:26;0.20;;;0.17;;
14292;SDS011;62290;59.420;17.842;2023-01-28T08:10:56;0.63;;;0.47;;
14292;SDS011;62290;59.420;17.842;2023-01-28T08:13:24;0.80;;;0.52;;
14292;SDS011;62290;59.420;17.842;2023-01-28T08:15:53;0.50;;;0.40;;
14292;SDS011;62290;59.420;17.842;2023-01-28T08:18:22;0.60;;;0.40;;
14292;SDS011;62290;59.420;17.842;2023-01-28T08:20:53;0.52;;;0.40;;
14292;SDS011;62290;59.420;17.842;2023-01-28T08:23:22;0.65;;;0.40;;
14292;SDS011;62290;59.420;17.842;2023-01-28T08:25:52;1.83;;;0.57;;
14292;SDS011;62290;59.420;17.842;2023-01-28T08:28:22;0.45;;;0.45;;
14292;SDS011;62290;59.420;17.842;2023-01-28T08:30:50;0.30;;;0.30;;
14292;SDS011;62290;59.420;17.842;2023-01-28T08:33:18;1.23;;;0.40;;
14292;SDS011;62290;59.420;17.842;2023-01-28T08:35:47;1.15;;;0.50;;
14292;SDS011;62290;59.420;17.842;2023-01-28T08:38:15;0.50;;;0.50;;
14292;SDS011;62290;59.420;17.842;2023-01-28T08:40:43;1.20;;;0.60;;
14292;SDS011;62290;59.420;17.842;2023-01-28T08:43:11;1.40;;;0.60;;
14292;SDS011;62290;59.420;17.842;2023-01-28T08:45:41;2.20;;;0.65;;
14292;SDS011;62290;59.420;17.842;2023-01-28T08:48:09;1.25;;;0.43;;
14292;SDS011;62290;59.420;17.842;2023-01-28T08:50:41;2.58;;;0.63;;
14292;SDS011;62290;59.420;17.842;2023-01-28T08:53:10;2.42;;;0.73;;
14292;SDS011;62290;59.420;17.842;2023-01-28T08:55:39;1.20;;;0.70;;
14292;SDS011;62290;59.420;17.842;2023-01-28T08:58:09;2.45;;;0.55;;
14292;SDS011;62290;59.420;17.842;2023-01-28T09:00:38;1.80;;;0.73;;
14292;SDS011;62290;59.420;17.842;2023-01-28T09:03:09;2.75;;;0.70;;
14292;SDS011;62290;59.420;17.842;2023-01-28T09:05:37;1.50;;;0.77;;
14292;SDS011;62290;59.420;17.842;2023-01-28T09:08:06;1.15;;;0.50;;
14292;SDS011;62290;59.420;17.842;2023-01-28T09:10:35;1.85;;;0.52;;
14292;SDS011;62290;59.420;17.842;2023-01-28T09:13:04;4.28;;;0.60;;
14292;SDS011;62290;59.420;17.842;2023-01-28T09:15:32;3.58;;;0.47;;
14292;SDS011;62290;59.420;17.842;2023-01-28T09:18:01;0.95;;;0.65;;
14292;SDS011;62290;59.420;17.842;2023-01-28T09:20:30;3.33;;;0.80;;
14292;SDS011;62290;59.420;17.842;2023-01-28T09:22:59;3.00;;;0.93;;
14292;SDS011;62290;59.420;17.842;2023-01-28T09:25:28;1.73;;;0.60;;
14292;SDS011;62290;59.420;17.842;2023-01-28T09:27:56;1.85;;;0.60;;
14292;SDS011;62290;59.420;17.842;2023-01-28T09:30:25;2.75;;;0.60;;
14292;SDS011;62290;59.420;17.842;2023-01-28T09:32:54;1.33;;;0.55;;
14292;SDS011;62290;59.420;17.842;2023-01-28T09:35:23;1.73;;;0.80;;
14292;SDS011;62290;59.420;17.842;2023-01-28T09:37:56;2.30;;;0.80;;
14292;SDS011;62290;59.420;17.842;2023-01-28T09:40:29;2.33;;;0.80;;
14292;SDS011;62290;59.420;17.842;2023-01-28T09:43:07;1.38;;;0.50;;
14292;SDS011;62290;59.420;17.842;2023-01-28T09:46:07;2.03;;;0.80;;
14292;SDS011;62290;59.420;17.842;2023-01-28T09:48:40;3.08;;;0.80;;
14292;SDS011;62290;59.420;17.842;2023-01-28T09:51:16;3.17;;;1.05;;
14292;SDS011;62290;59.420;17.842;2023-01-28T09:53:57;2.28;;;0.60;;
14292;SDS011;62290;59.420;17.842;2023-01-28T09:56:29;0.90;;;0.70;;
14292;SDS011;62290;59.420;17.842;2023-01-28T09:59:15;4.60;;;0.77;;
14292;SDS011;62290;59.420;17.842;2023-01-28T10:01:46;1.42;;;0.73;;
14292;SDS011;62290;59.420;17.842;2023-01-28T10:04:24;0.68;;;0.50;;
14292;SDS011;62290;59.420;17.842;2023-01-28T10:07:08;1.42;;;0.60;;
14292;SDS011;62290;59.420;17.842;2023-01-28T10:09:46;2.75;;;0.93;;
14292;SDS011;62290;59.420;17.842;2023-01-28T10:12:28;1.58;;;0.65;;
14292;SDS011;62290;59.420;17.842;2023-01-28T10:15:20;2.75;;;0.70;;
14292;SDS011;62290;59.420;17.842;2023-01-28T10:18:00;4.07;;;1.13;;
14292;SDS011;62290;59.420;17.842;2023-01-28T10:20:44;2.08;;;0.73;;
14292;SDS011;62290;59.420;17.842;2023-01-28T10:23:17;2.30;;;0.60;;
14292;SDS011;62290;59.420;17.842;2023-01-28T10:25:50;2.25;;;0.70;;
14292;SDS011;62290;59.420;17.842;2023-01-28T10:28:20;0.85;;;0.63;;
14292;SDS011;62290;59.420;17.842;2023-01-28T10:30:50;2.83;;;0.90;;
14292;SDS011;62290;59.420;17.842;2023-01-28T10:33:19;3.00;;;0.73;;
14292;SDS011;62290;59.420;17.842;2023-01-28T10:35:52;1.35;;;0.70;;
14292;SDS011;62290;59.420;17.842;2023-01-28T10:38:22;2.17;;;0.75;;
14292;SDS011;62290;59.420;17.842;2023-01-28T10:40:53;1.58;;;0.60;;
14292;SDS011;62290;59.420;17.842;2023-01-28T10:43:29;3.05;;;1.15;;
14292;SDS011;62290;59.420;17.842;2023-01-28T10:46:00;1.83;;;0.60;;
14292;SDS011;62290;59.420;17.842;2023-01-28T10:48:31;1.33;;;0.90;;
14292;SDS011;62290;59.420;17.842;2023-01-28T10:51:03;2.67;;;0.63;;
14292;SDS011;62290;59.420;17.842;2023-01-28T10:53:32;0.98;;;0.77;;
14292;SDS011;62290;59.420;17.842;2023-01-28T10:56:04;1.50;;;0.45;;
14292;SDS011;62290;59.420;17.842;2023-01-28T10:58:35;1.98;;;0.60;;
14292;SDS011;62290;59.420;17.842;2023-01-28T11:01:13;3.17;;;0.75;;
14292;SDS011;62290;59.420;17.842;2023-01-28T11:03:50;4.25;;;0.98;;
14292;SDS011;62290;59.420;17.842;2023-01-28T11:06:24;7.00;;;1.25;;
14292;SDS011;62290;59.420;17.842;2023-01-28T11:08:53;5.38;;;1.23;;
14292;SDS011;62290;59.420;17.842;2023-01-28T11:11:24;6.38;;;1.30;;
14292;SDS011;62290;59.420;17.842;2023-01-28T11:13:53;6.88;;;1.35;;
14292;SDS011;62290;59.420;17.842;2023-01-28T11:16:24;5.00;;;1.13;;
14292;SDS011;62290;59.420;17.842;2023-01-28T11:18:53;3.53;;;0.88;;
14292;SDS011;62290;59.420;17.842;2023-01-28T11:21:24;4.95;;;0.93;;
14292;SDS011;62290;59.420;17.842;2023-01-28T11:23:55;4.85;;;0.90;;
14292;SDS011;62290;59.420;17.842;2023-01-28T11:26:27;5.68;;;0.80;;
14292;SDS011;62290;59.420;17.842;2023-01-28T11:28:58;3.40;;;0.80;;
14292;SDS011;62290;59.420;17.842;2023-01-28T11:31:26;2.28;;;0.90;;
14292;SDS011;62290;59.420;17.842;2023-01-28T11:33:55;3.20;;;0.77;;
14292;SDS011;62290;59.420;17.842;2023-01-28T11:36:26;2.65;;;0.93;;
14292;SDS011;62290;59.420;17.842;2023-01-28T11:38:56;5.50;;;1.00;;
14292;SDS011;62290;59.420;17.842;2023-01-28T11:41:27;3.20;;;0.88;;
14292;SDS011;62290;59.420;17.842;2023-01-28T11:43:57;5.57;;;1.13;;
14292;SDS011;62290;59.420;17.842;2023-01-28T11:46:33;2.75;;;1.30;;
14292;SDS011;62290;59.420;17.842;2023-01-28T11:49:12;4.93;;;1.00;;
14292;SDS011;62290;59.420;17.842;2023-01-28T11:51:52;2.53;;;0.75;;
14292;SDS011;62290;59.420;17.842;2023-01-28T11:54:29;1.38;;;0.60;;
14292;SDS011;62290;59.420;17.842;2023-01-28T11:57:15;3.00;;;1.02;;
14292;SDS011;62290;59.420;17.842;2023-01-28T12:00:03;2.53;;;0.85;;
14292;SDS011;62290;59.420;17.842;2023-01-28T12:02:48;2.42;;;0.55;;
14292;SDS011;62290;59.420;17.842;2023-01-28T12:08:19;2.58;;;0.52;;
14292;SDS011;62290;59.420;17.842;2023-01-28T12:10:58;2.25;;;0.70;;
14292;SDS011;62290;59.420;17.842;2023-01-28T12:13:44;2.10;;;0.82;;
14292;SDS011;62290;59.420;17.842;2023-01-28T12:16:25;2.65;;;1.00;;
14292;SDS011;62290;59.420;17.842;2023-01-28T12:19:19;1.98;;;0.70;;
14292;SDS011;62290;59.420;17.842;2023-01-28T12:22:02;1.25;;;0.70;;
14292;SDS011;62290;59.420;17.842;2023-01-28T12:24:45;2.05;;;0.73;;
14292;SDS011;62290;59.420;17.842;2023-01-28T12:27:25;1.80;;;0.80;;
14292;SDS011;62290;59.420;17.842;2023-01-28T12:30:05;5.13;;;0.93;;
14292;SDS011;62290;59.420;17.842;2023-01-28T12:32:51;2.65;;;0.90;;
14292;SDS011;62290;59.420;17.842;2023-01-28T12:35:41;2.20;;;0.80;;
14292;SDS011;62290;59.420;17.842;2023-01-28T12:38:20;1.65;;;0.90;;
14292;SDS011;62290;59.420;17.842;2023-01-28T12:41:00;1.58;;;0.80;;
14292;SDS011;62290;59.420;17.842;2023-01-28T12:43:39;7.75;;;1.42;;
14292;SDS011;62290;59.420;17.842;2023-01-28T12:46:17;4.75;;;0.75;;
14292;SDS011;62290;59.420;17.842;2023-01-28T12:48:52;3.88;;;0.90;;
14292;SDS011;62290;59.420;17.842;2023-01-28T12:51:27;3.05;;;0.77;;
14292;SDS011;62290;59.420;17.842;2023-01-28T12:53:59;3.35;;;1.15;;
14292;SDS011;62290;59.420;17.842;2023-01-28T12:56:33;5.75;;;1.30;;
14292;SDS011;62290;59.420;17.842;2023-01-28T12:59:04;2.75;;;1.00;;
14292;SDS011;62290;59.420;17.842;2023-01-28T13:01:41;2.47;;;0.70;;
14292;SDS011;62290;59.420;17.842;2023-01-28T13:04:15;1.70;;;0.70;;
14292;SDS011;62290;59.420;17.842;2023-01-28T13:06:53;1.65;;;0.80;;
14292;SDS011;62290;59.420;17.842;2023-01-28T13:09:25;3.10;;;1.00;;
14292;SDS011;62290;59.420;17.842;2023-01-28T13:11:56;1.55;;;0.80;;
14292;SDS011;62290;59.420;17.842;2023-01-28T13:14:27;3.53;;;0.80;;
14292;SDS011;62290;59.420;17.842;2023-01-28T13:17:08;1.25;;;0.82;;
14292;SDS011;62290;59.420;17.842;2023-01-28T13:19:38;1.67;;;0.77;;
14292;SDS011;62290;59.420;17.842;2023-01-28T13:22:24;2.17;;;1.00;;
14292;SDS011;62290;59.420;17.842;2023-01-28T13:24:54;2.38;;;0.70;;
14292;SDS011;62290;59.420;17.842;2023-01-28T13:27:23;3.15;;;0.95;;
14292;SDS011;62290;59.420;17.842;2023-01-28T13:30:00;4.15;;;0.88;;
14292;SDS011;62290;59.420;17.842;2023-01-28T13:32:32;2.45;;;0.93;;
14292;SDS011;62290;59.420;17.842;2023-01-28T13:35:03;1.10;;;0.57;;
14292;SDS011;62290;59.420;17.842;2023-01-28T13:37:34;1.95;;;0.90;;
14292;SDS011;62290;59.420;17.842;2023-01-28T13:40:06;1.35;;;0.80;;
14292;SDS011;62290;59.420;17.842;2023-01-28T13:42:56;5.03;;;1.00;;
14292;SDS011;62290;59.420;17.842;2023-01-28T13:45:26;2.05;;;0.63;;
14292;SDS011;62290;59.420;17.842;2023-01-28T13:47:57;3.28;;;0.77;;
14292;SDS011;62290;59.420;17.842;2023-01-28T13:50:32;1.70;;;0.70;;
14292;SDS011;62290;59.420;17.842;2023-01-28T13:53:12;3.85;;;0.93;;
14292;SDS011;62290;59.420;17.842;2023-01-28T13:55:47;1.48;;;0.80;;
14292;SDS011;62290;59.420;17.842;2023-01-28T13:58:34;1.85;;;0.80;;
14292;SDS011;62290;59.420;17.842;2023-01-28T14:01:50;1.27;;;0.90;;
14292;SDS011;62290;59.420;17.842;2023-01-28T14:04:41;2.75;;;0.90;;
14292;SDS011;62290;59.420;17.842;2023-01-28T14:07:57;2.88;;;0.60;;
14292;SDS011;62290;59.420;17.842;2023-01-28T14:10:52;1.70;;;0.68;;
14292;SDS011;62290;59.420;17.842;2023-01-28T14:13:36;3.13;;;0.73;;
14292;SDS011;62290;59.420;17.842;2023-01-28T14:16:20;1.98;;;0.80;;
14292;SDS011;62290;59.420;17.842;2023-01-28T14:19:09;3.38;;;0.88;;
14292;SDS011;62290;59.420;17.842;2023-01-28T14:21:41;2.38;;;0.85;;
14292;SDS011;62290;59.420;17.842;2023-01-28T14:24:11;1.88;;;0.82;;
14292;SDS011;62290;59.420;17.842;2023-01-28T14:26:49;2.38;;;0.73;;
14292;SDS011;62290;59.420;17.842;2023-01-28T14:29:41;3.25;;;0.65;;
14292;SDS011;62290;59.420;17.842;2023-01-28T14:32:17;2.28;;;0.57;;
14292;SDS011;62290;59.420;17.842;2023-01-28T14:34:48;1.63;;;0.75;;
14292;SDS011;62290;59.420;17.842;2023-01-28T14:37:18;1.23;;;0.70;;
14292;SDS011;62290;59.420;17.842;2023-01-28T14:39:50;1.20;;;0.70;;
14292;SDS011;62290;59.420;17.842;2023-01-28T14:42:23;1.85;;;0.60;;
14292;SDS011;62290;59.420;17.842;2023-01-28T14:44:55;3.72;;;0.80;;
14292;SDS011;62290;59.420;17.842;2023-01-28T14:50:29;2.05;;;0.80;;
14292;SDS011;62290;59.420;17.842;2023-01-28T14:53:21;2.28;;;0.73;;
14292;SDS011;62290;59.420;17.842;2023-01-28T14:55:57;1.38;;;0.65;;
14292;SDS011;62290;59.420;17.842;2023-01-28T14:58:35;1.02;;;0.60;;
14292;SDS011;62290;59.420;17.842;2023-01-28T15:01:16;1.83;;;0.70;;
14292;SDS011;62290;59.420;17.842;2023-01-28T15:03:47;1.58;;;0.70;;
14292;SDS011;62290;59.420;17.842;2023-01-28T15:06:16;1.38;;;0.73;;
14292;SDS011;62290;59.420;17.842;2023-01-28T15:08:47;0.95;;;0.57;;
14292;SDS011;62290;59.420;17.842;2023-01-28T15:11:15;1.67;;;0.57;;
14292;SDS011;62290;59.420;17.842;2023-01-28T15:13:48;4.72;;;1.60;;
14292;SDS011;62290;59.420;17.842;2023-01-28T15:16:20;1.15;;;0.77;;
14292;SDS011;62290;59.420;17.842;2023-01-28T15:18:50;2.58;;;0.80;;
14292;SDS011;62290;59.420;17.842;2023-01-28T15:21:19;1.75;;;0.50;;